createdAt,value
2023-04-08T00:00:00.679Z,9.20
2023-04-08T00:00:21.958Z,9.00
2023-04-08T00:00:43.019Z,9.30
2023-04-08T00:01:04.084Z,10.20
2023-04-08T00:01:25.134Z,9.70
2023-04-08T00:01:46.302Z,8.90
2023-04-08T00:02:07.405Z,9.50
2023-04-08T00:02:28.651Z,9.60
2023-04-08T00:02:49.970Z,9.30
2023-04-08T00:03:11.192Z,9.20
2023-04-08T00:03:32.511Z,9.30
2023-04-08T00:03:54.141Z,9.20
2023-04-08T00:04:15.468Z,9.00
2023-04-08T00:04:36.587Z,9.00
2023-04-08T00:04:57.918Z,9.60
2023-04-08T00:05:19.029Z,9.30
2023-04-08T00:05:40.131Z,9.40
2023-04-08T00:06:01.179Z,9.30
2023-04-08T00:06:22.321Z,9.00
2023-04-08T00:06:43.338Z,8.50
2023-04-08T00:07:04.387Z,9.10
2023-04-08T00:07:25.478Z,9.80
2023-04-08T00:07:46.576Z,9.50
2023-04-08T00:08:07.681Z,9.40
2023-04-08T00:08:28.709Z,9.30
2023-04-08T00:08:50.014Z,9.80
2023-04-08T00:09:11.233Z,9.30
2023-04-08T00:09:32.316Z,9.90
2023-04-08T00:09:53.518Z,9.50
2023-04-08T00:10:14.532Z,9.30
2023-04-08T00:10:35.587Z,9.70
2023-04-08T00:10:56.672Z,9.40
2023-04-08T00:11:17.764Z,9.50
2023-04-08T00:11:38.818Z,9.60
2023-04-08T00:11:59.882Z,10.00
2023-04-08T00:12:20.914Z,9.50
2023-04-08T00:12:42.001Z,9.40
2023-04-08T00:13:03.271Z,9.40
2023-04-08T00:13:24.529Z,9.30
2023-04-08T00:13:45.590Z,9.20
2023-04-08T00:14:06.660Z,9.40
2023-04-08T00:14:27.699Z,10.40
2023-04-08T00:14:48.768Z,10.20
2023-04-08T00:15:09.829Z,9.50
2023-04-08T00:15:30.892Z,9.20
2023-04-08T00:15:51.952Z,9.60
2023-04-08T00:16:13.077Z,9.90
2023-04-08T00:16:34.215Z,9.90
2023-04-08T00:16:55.291Z,10.00
2023-04-08T00:17:16.338Z,9.70
2023-04-08T00:17:37.450Z,9.80
2023-04-08T00:17:58.518Z,9.70
2023-04-08T00:18:19.761Z,9.60
2023-04-08T00:18:41.000Z,9.50
2023-04-08T00:19:02.067Z,9.50
2023-04-08T00:19:23.142Z,9.80
2023-04-08T00:19:44.198Z,9.50
2023-04-08T00:20:05.254Z,9.10
2023-04-08T00:20:26.310Z,9.20
2023-04-08T00:20:47.386Z,9.20
2023-04-08T00:21:08.416Z,9.90
2023-04-08T00:21:29.469Z,9.80
2023-04-08T00:21:50.545Z,9.90
2023-04-08T00:22:11.604Z,9.80
2023-04-08T00:22:32.656Z,9.40
2023-04-08T00:22:53.688Z,9.70
2023-04-08T00:23:14.749Z,9.30
2023-04-08T00:23:36.001Z,9.90
2023-04-08T00:23:57.111Z,9.40
2023-04-08T00:24:18.155Z,9.80
2023-04-08T00:24:39.221Z,9.60
2023-04-08T00:25:00.442Z,9.60
2023-04-08T00:25:23.419Z,9.90
2023-04-08T00:25:45.896Z,10.30
2023-04-08T00:26:06.956Z,9.50
2023-04-08T00:26:28.027Z,9.40
2023-04-08T00:26:49.085Z,9.80
2023-04-08T00:27:10.132Z,9.90
2023-04-08T00:27:31.193Z,9.80
2023-04-08T00:27:52.255Z,10.20
2023-04-08T00:28:13.352Z,10.10
2023-04-08T00:28:34.382Z,10.00
2023-04-08T00:28:55.478Z,9.80
2023-04-08T00:29:16.726Z,9.70
2023-04-08T00:29:37.784Z,9.80
2023-04-08T00:29:58.904Z,10.30
2023-04-08T00:30:19.922Z,10.40
2023-04-08T00:30:41.006Z,10.60
2023-04-08T00:31:02.047Z,10.30
2023-04-08T00:31:23.250Z,10.30
2023-04-08T00:31:44.389Z,10.40
2023-04-08T00:32:05.474Z,10.20
2023-04-08T00:32:26.574Z,10.40
2023-04-08T00:32:47.613Z,10.50
2023-04-08T00:33:08.692Z,9.90
2023-04-08T00:33:29.764Z,9.80
2023-04-08T00:33:50.839Z,10.00
2023-04-08T00:34:11.932Z,9.80
2023-04-08T00:34:33.159Z,10.30
2023-04-08T00:34:54.232Z,9.90
2023-04-08T00:35:15.318Z,10.30
2023-04-08T00:35:36.351Z,10.10
2023-04-08T00:35:57.434Z,10.60
2023-04-08T00:36:18.487Z,10.50
2023-04-08T00:36:39.545Z,10.30
2023-04-08T00:37:00.598Z,9.90
2023-04-08T00:37:21.660Z,10.30
2023-04-08T00:37:42.731Z,10.80
2023-04-08T00:38:03.846Z,9.90
2023-04-08T00:38:24.890Z,10.20
2023-04-08T00:38:45.956Z,9.90
2023-04-08T00:39:07.016Z,10.30
2023-04-08T00:39:28.269Z,10.70
2023-04-08T00:39:49.557Z,10.80
2023-04-08T00:40:10.650Z,10.70
2023-04-08T00:40:31.662Z,10.30
2023-04-08T00:40:52.721Z,10.60
2023-04-08T00:41:13.783Z,10.30
2023-04-08T00:41:34.902Z,10.50
2023-04-08T00:41:55.945Z,10.90
2023-04-08T00:42:17.001Z,10.40
2023-04-08T00:42:38.042Z,10.30
2023-04-08T00:42:59.153Z,10.30
2023-04-08T00:43:20.200Z,10.80
2023-04-08T00:43:41.268Z,10.70
2023-04-08T00:44:02.313Z,10.80
2023-04-08T00:44:23.359Z,10.60
2023-04-08T00:44:44.478Z,10.30
2023-04-08T00:45:05.642Z,10.70
2023-04-08T00:45:26.650Z,10.80
2023-04-08T00:45:47.764Z,11.10
2023-04-08T00:46:08.810Z,11.20
2023-04-08T00:46:29.919Z,10.80
2023-04-08T00:46:50.953Z,11.00
2023-04-08T00:47:12.040Z,10.80
2023-04-08T00:47:33.153Z,10.70
2023-04-08T00:47:54.206Z,10.80
2023-04-08T00:48:15.297Z,11.10
2023-04-08T00:48:36.344Z,10.10
2023-04-08T00:48:57.399Z,10.70
2023-04-08T00:49:18.445Z,10.90
2023-04-08T00:49:39.500Z,10.70
2023-04-08T00:50:00.584Z,10.60
2023-04-08T00:50:21.833Z,10.80
2023-04-08T00:50:42.931Z,10.90
2023-04-08T00:51:03.974Z,11.40
2023-04-08T00:51:25.064Z,10.50
2023-04-08T00:51:46.075Z,10.60
2023-04-08T00:52:07.194Z,10.60
2023-04-08T00:52:28.197Z,10.20
2023-04-08T00:52:49.249Z,10.30
2023-04-08T00:53:10.336Z,10.80
2023-04-08T00:53:31.458Z,10.60
2023-04-08T00:53:52.496Z,10.60
2023-04-08T00:54:13.552Z,10.70
2023-04-08T00:54:34.614Z,10.50
2023-04-08T00:54:55.686Z,10.70
2023-04-08T00:55:16.928Z,11.10
2023-04-08T00:55:38.017Z,11.00
2023-04-08T00:55:59.053Z,11.20
2023-04-08T00:56:20.103Z,10.80
2023-04-08T00:56:41.200Z,11.30
2023-04-08T00:57:02.293Z,10.90
2023-04-08T00:57:23.344Z,10.50
2023-04-08T00:57:44.395Z,10.60
2023-04-08T00:58:05.496Z,11.40
2023-04-08T00:58:26.553Z,11.30
2023-04-08T00:58:47.647Z,11.30
2023-04-08T00:59:08.760Z,10.80
2023-04-08T00:59:29.879Z,11.70
2023-04-08T00:59:50.927Z,10.90
2023-04-08T01:00:11.956Z,11.20
2023-04-08T01:00:33.040Z,11.00
2023-04-08T01:00:54.130Z,10.80
2023-04-08T01:01:15.256Z,10.60
2023-04-08T01:01:36.361Z,10.50
2023-04-08T01:01:57.509Z,10.60
2023-04-08T01:02:18.737Z,11.00
2023-04-08T01:02:39.932Z,10.90
2023-04-08T01:03:01.142Z,11.20
2023-04-08T01:03:22.477Z,10.80
2023-04-08T01:03:43.660Z,10.70
2023-04-08T01:04:04.869Z,10.30
2023-04-08T01:04:26.077Z,10.40
2023-04-08T01:04:47.107Z,10.40
2023-04-08T01:05:08.184Z,9.80
2023-04-08T01:05:29.227Z,10.70
2023-04-08T01:05:50.491Z,11.30
2023-04-08T01:06:11.722Z,11.00
2023-04-08T01:06:32.780Z,10.90
2023-04-08T01:06:53.938Z,10.90
2023-04-08T01:07:14.945Z,10.90
2023-04-08T01:07:36.018Z,10.50
2023-04-08T01:07:57.080Z,10.40
2023-04-08T01:08:18.132Z,10.60
2023-04-08T01:08:39.196Z,10.70
2023-04-08T01:09:00.255Z,10.40
2023-04-08T01:09:21.322Z,10.40
2023-04-08T01:09:42.435Z,10.60
2023-04-08T01:10:03.492Z,10.40
2023-04-08T01:10:24.512Z,9.90
2023-04-08T01:10:45.584Z,10.20
2023-04-08T01:11:06.848Z,10.60
2023-04-08T01:11:28.099Z,11.10
2023-04-08T01:11:49.144Z,11.00
2023-04-08T01:12:10.212Z,10.70
2023-04-08T01:12:31.266Z,10.60
2023-04-08T01:12:52.299Z,10.50
2023-04-08T01:13:13.373Z,11.10
2023-04-08T01:13:34.425Z,10.70
2023-04-08T01:13:55.484Z,10.80
2023-04-08T01:14:16.538Z,11.00
2023-04-08T01:14:37.611Z,10.90
2023-04-08T01:14:58.663Z,10.80
2023-04-08T01:15:19.702Z,10.80
2023-04-08T01:15:40.974Z,10.80
2023-04-08T01:16:02.116Z,10.50
2023-04-08T01:16:23.244Z,9.90
2023-04-08T01:16:44.378Z,10.30
2023-04-08T01:17:05.509Z,10.90
2023-04-08T01:17:26.609Z,10.90
2023-04-08T01:17:47.707Z,10.80
2023-04-08T01:18:08.785Z,10.10
2023-04-08T01:18:29.850Z,10.30
2023-04-08T01:18:51.178Z,11.10
2023-04-08T01:19:12.444Z,10.60
2023-04-08T01:19:33.533Z,10.40
2023-04-08T01:19:54.580Z,10.30
2023-04-08T01:20:15.649Z,10.40
2023-04-08T01:20:36.701Z,10.50
2023-04-08T01:20:57.765Z,10.00
2023-04-08T01:21:18.844Z,10.60
2023-04-08T01:21:40.082Z,11.00
2023-04-08T01:22:01.227Z,10.90
2023-04-08T01:22:22.272Z,10.50
2023-04-08T01:22:43.314Z,10.50
2023-04-08T01:23:04.387Z,10.60
2023-04-08T01:23:25.482Z,10.60
2023-04-08T01:23:46.493Z,10.70
2023-04-08T01:24:07.571Z,10.30
2023-04-08T01:24:28.621Z,10.50
2023-04-08T01:24:49.681Z,11.00
2023-04-08T01:25:10.751Z,10.80
2023-04-08T01:25:31.808Z,11.00
2023-04-08T01:25:52.845Z,11.10
2023-04-08T01:26:13.895Z,10.70
2023-04-08T01:26:35.002Z,10.60
2023-04-08T01:26:56.091Z,10.50
2023-04-08T01:27:17.181Z,10.40
2023-04-08T01:27:38.240Z,10.70
2023-04-08T01:27:59.325Z,11.10
2023-04-08T01:28:20.342Z,10.80
2023-04-08T01:28:41.392Z,10.90
2023-04-08T01:29:02.460Z,11.40
2023-04-08T01:29:23.627Z,10.70
2023-04-08T01:29:44.659Z,10.80
2023-04-08T01:30:05.712Z,11.50
2023-04-08T01:30:26.765Z,11.40
2023-04-08T01:30:47.833Z,11.40
2023-04-08T01:31:08.946Z,11.00
2023-04-08T01:31:30.057Z,11.20
2023-04-08T01:31:51.145Z,11.40
2023-04-08T01:32:12.273Z,11.80
2023-04-08T01:32:33.424Z,11.40
2023-04-08T01:32:54.544Z,11.20
2023-04-08T01:33:15.597Z,11.00
2023-04-08T01:33:36.642Z,11.10
2023-04-08T01:33:57.687Z,10.90
2023-04-08T01:34:18.765Z,11.10
2023-04-08T01:34:39.827Z,11.00
2023-04-08T01:35:00.908Z,11.30
2023-04-08T01:35:21.983Z,11.60
2023-04-08T01:35:43.044Z,12.30
2023-04-08T01:36:04.158Z,11.20
2023-04-08T01:36:25.230Z,11.40
2023-04-08T01:36:46.285Z,11.90
2023-04-08T01:37:07.373Z,11.90
2023-04-08T01:37:28.436Z,11.40
2023-04-08T01:37:49.530Z,11.50
2023-04-08T01:38:10.570Z,11.10
2023-04-08T01:38:31.633Z,11.30
2023-04-08T01:38:52.690Z,11.50
2023-04-08T01:39:13.810Z,12.10
2023-04-08T01:39:34.855Z,11.10
2023-04-08T01:39:55.900Z,11.60
2023-04-08T01:40:17.018Z,11.60
2023-04-08T01:40:38.125Z,11.50
2023-04-08T01:40:59.145Z,11.40
2023-04-08T01:41:20.242Z,11.10
2023-04-08T01:41:41.280Z,11.00
2023-04-08T01:42:02.348Z,10.80
2023-04-08T01:42:23.398Z,11.50
2023-04-08T01:42:44.773Z,10.90
2023-04-08T01:43:05.825Z,10.90
2023-04-08T01:43:26.884Z,11.10
2023-04-08T01:43:47.940Z,12.00
2023-04-08T01:44:08.998Z,11.40
2023-04-08T01:44:30.065Z,11.50
2023-04-08T01:44:51.104Z,12.10
2023-04-08T01:45:12.200Z,11.90
2023-04-08T01:45:33.233Z,11.50
2023-04-08T01:45:54.273Z,11.00
2023-04-08T01:46:15.439Z,11.20
2023-04-08T01:46:36.574Z,11.40
2023-04-08T01:46:57.719Z,11.80
2023-04-08T01:47:18.818Z,11.60
2023-04-08T01:47:39.896Z,11.90
2023-04-08T01:48:01.220Z,11.60
2023-04-08T01:48:22.487Z,10.90
2023-04-08T01:48:43.527Z,11.20
2023-04-08T01:49:04.594Z,11.30
2023-04-08T01:49:25.653Z,11.90
2023-04-08T01:49:46.714Z,11.40
2023-04-08T01:50:07.793Z,11.00
2023-04-08T01:50:28.850Z,11.80
2023-04-08T01:50:49.894Z,11.60
2023-04-08T01:51:10.960Z,11.10
2023-04-08T01:51:32.052Z,11.00
2023-04-08T01:51:53.090Z,11.60
2023-04-08T01:52:14.145Z,11.40
2023-04-08T01:52:35.211Z,11.50
2023-04-08T01:52:56.269Z,11.70
2023-04-08T01:53:17.368Z,11.30
2023-04-08T01:53:38.598Z,11.40
2023-04-08T01:53:59.675Z,12.00
2023-04-08T01:54:20.734Z,11.40
2023-04-08T01:54:41.794Z,11.50
2023-04-08T01:55:02.857Z,11.10
2023-04-08T01:55:24.041Z,12.00
2023-04-08T01:55:45.060Z,11.70
2023-04-08T01:56:06.116Z,11.00
2023-04-08T01:56:27.185Z,12.00
2023-04-08T01:56:48.222Z,11.40
2023-04-08T01:57:09.306Z,11.30
2023-04-08T01:57:30.373Z,11.70
2023-04-08T01:57:51.414Z,11.30
2023-04-08T01:58:12.466Z,10.90
2023-04-08T01:58:33.556Z,11.40
2023-04-08T01:58:54.633Z,11.70
2023-04-08T01:59:15.735Z,11.60
2023-04-08T01:59:36.791Z,11.20
2023-04-08T01:59:57.844Z,11.20
2023-04-08T02:00:18.908Z,11.00
2023-04-08T02:00:39.964Z,11.20
2023-04-08T02:01:01.046Z,11.90
2023-04-08T02:01:22.230Z,11.60
2023-04-08T02:01:43.374Z,10.70
2023-04-08T02:02:04.509Z,10.60
2023-04-08T02:02:25.711Z,10.70
2023-04-08T02:02:46.946Z,11.00
2023-04-08T02:03:08.337Z,11.30
2023-04-08T02:03:29.619Z,11.50
2023-04-08T02:03:50.944Z,11.10
2023-04-08T02:04:12.203Z,10.80
2023-04-08T02:04:33.295Z,10.40
2023-04-08T02:04:54.377Z,10.70
2023-04-08T02:05:15.443Z,10.70
2023-04-08T02:05:36.483Z,11.40
2023-04-08T02:05:57.550Z,11.10
2023-04-08T02:06:18.620Z,10.80
2023-04-08T02:06:39.670Z,10.70
2023-04-08T02:07:00.759Z,11.00
2023-04-08T02:07:21.803Z,11.30
2023-04-08T02:07:42.845Z,11.20
2023-04-08T02:08:03.933Z,11.60
2023-04-08T02:08:24.998Z,12.20
2023-04-08T02:08:46.119Z,11.80
2023-04-08T02:09:07.187Z,11.70
2023-04-08T02:09:28.275Z,11.50
2023-04-08T02:09:49.335Z,11.70
2023-04-08T02:10:10.402Z,11.70
2023-04-08T02:10:31.484Z,11.80
2023-04-08T02:10:52.511Z,11.40
2023-04-08T02:11:13.571Z,11.60
2023-04-08T02:11:34.648Z,12.00
2023-04-08T02:11:55.682Z,12.20
2023-04-08T02:12:16.742Z,12.10
2023-04-08T02:12:37.802Z,11.90
2023-04-08T02:12:58.859Z,12.00
2023-04-08T02:13:19.931Z,11.50
2023-04-08T02:13:41.001Z,11.40
2023-04-08T02:14:02.039Z,12.40
2023-04-08T02:14:23.141Z,12.20
2023-04-08T02:14:44.248Z,12.90
2023-04-08T02:15:05.307Z,12.50
2023-04-08T02:15:26.343Z,12.00
2023-04-08T02:15:47.481Z,11.80
2023-04-08T02:16:08.589Z,11.20
2023-04-08T02:16:29.682Z,12.10
2023-04-08T02:16:50.724Z,11.60
2023-04-08T02:17:11.780Z,11.70
2023-04-08T02:17:34.670Z,11.80
2023-04-08T02:17:56.801Z,12.40
2023-04-08T02:18:17.879Z,12.40
2023-04-08T02:18:38.915Z,12.40
2023-04-08T02:19:00.031Z,11.90
2023-04-08T02:19:21.113Z,12.30
2023-04-08T02:19:42.147Z,12.50
2023-04-08T02:20:03.233Z,12.90
2023-04-08T02:20:24.299Z,13.00
2023-04-08T02:20:45.365Z,12.70
2023-04-08T02:21:06.436Z,12.50
2023-04-08T02:21:27.490Z,12.50
2023-04-08T02:21:48.561Z,12.90
2023-04-08T02:22:09.589Z,12.80
2023-04-08T02:22:30.663Z,12.90
2023-04-08T02:22:51.722Z,13.10
2023-04-08T02:23:12.757Z,12.20
2023-04-08T02:23:33.858Z,12.30
2023-04-08T02:23:54.894Z,12.60
2023-04-08T02:24:15.954Z,12.60
2023-04-08T02:24:37.039Z,12.00
2023-04-08T02:24:58.272Z,12.60
2023-04-08T02:25:19.504Z,12.60
2023-04-08T02:25:40.595Z,12.10
2023-04-08T02:26:01.641Z,12.50
2023-04-08T02:26:22.705Z,12.50
2023-04-08T02:26:43.758Z,12.70
2023-04-08T02:27:04.861Z,13.00
2023-04-08T02:27:25.883Z,12.50
2023-04-08T02:27:46.971Z,12.00
2023-04-08T02:28:08.039Z,12.90
2023-04-08T02:28:29.108Z,12.70
2023-04-08T02:28:50.452Z,13.10
2023-04-08T02:29:11.732Z,12.90
2023-04-08T02:29:32.781Z,12.70
2023-04-08T02:29:53.838Z,12.60
2023-04-08T02:30:15.076Z,12.40
2023-04-08T02:30:36.237Z,12.10
2023-04-08T02:30:57.309Z,12.30
2023-04-08T02:31:18.375Z,12.60
2023-04-08T02:31:39.467Z,12.70
2023-04-08T02:32:00.525Z,12.40
2023-04-08T02:32:21.586Z,12.30
2023-04-08T02:32:42.652Z,12.70
2023-04-08T02:33:03.741Z,12.90
2023-04-08T02:33:24.840Z,12.80
2023-04-08T02:33:45.852Z,13.20
2023-04-08T02:34:06.910Z,13.20
2023-04-08T02:34:27.961Z,12.70
2023-04-08T02:34:49.057Z,12.50
2023-04-08T02:35:10.088Z,13.00
2023-04-08T02:35:31.246Z,13.00
2023-04-08T02:35:52.481Z,13.30
2023-04-08T02:36:13.536Z,13.00
2023-04-08T02:36:34.602Z,12.80
2023-04-08T02:36:55.648Z,12.90
2023-04-08T02:37:16.707Z,13.10
2023-04-08T02:37:37.767Z,13.50
2023-04-08T02:37:58.830Z,13.40
2023-04-08T02:38:19.891Z,13.30
2023-04-08T02:38:40.950Z,13.40
2023-04-08T02:39:02.108Z,12.90
2023-04-08T02:39:23.162Z,13.40
2023-04-08T02:39:44.195Z,13.40
2023-04-08T02:40:05.282Z,13.20
2023-04-08T02:40:26.362Z,13.30
2023-04-08T02:40:47.632Z,13.40
2023-04-08T02:41:08.705Z,13.30
2023-04-08T02:41:29.762Z,13.00
2023-04-08T02:41:50.821Z,12.60
2023-04-08T02:42:12.144Z,12.80
2023-04-08T02:42:33.457Z,12.50
2023-04-08T02:42:54.537Z,12.70
2023-04-08T02:43:15.580Z,12.80
2023-04-08T02:43:36.702Z,12.60
2023-04-08T02:43:57.739Z,12.90
2023-04-08T02:44:18.807Z,12.70
2023-04-08T02:44:39.869Z,12.40
2023-04-08T02:45:00.919Z,12.60
2023-04-08T02:45:22.006Z,12.60
2023-04-08T02:45:43.136Z,12.60
2023-04-08T02:46:04.589Z,12.50
2023-04-08T02:46:25.883Z,12.50
2023-04-08T02:46:46.989Z,12.40
2023-04-08T02:47:08.033Z,12.10
2023-04-08T02:47:29.175Z,11.80
2023-04-08T02:47:50.230Z,12.50
2023-04-08T02:48:11.306Z,12.20
2023-04-08T02:48:32.371Z,12.70
2023-04-08T02:48:53.437Z,13.20
2023-04-08T02:49:14.481Z,12.70
2023-04-08T02:49:35.552Z,12.40
2023-04-08T02:49:56.734Z,12.60
2023-04-08T02:50:17.746Z,12.00
2023-04-08T02:50:38.798Z,12.20
2023-04-08T02:50:59.953Z,11.90
2023-04-08T02:51:21.020Z,11.60
2023-04-08T02:51:42.293Z,11.50
2023-04-08T02:52:03.350Z,11.90
2023-04-08T02:52:24.396Z,12.20
2023-04-08T02:52:45.458Z,12.00
2023-04-08T02:53:06.512Z,11.80
2023-04-08T02:53:27.592Z,12.70
2023-04-08T02:53:48.638Z,12.80
2023-04-08T02:54:09.693Z,13.10
2023-04-08T02:54:30.769Z,13.70
2023-04-08T02:54:51.838Z,13.90
2023-04-08T02:55:12.894Z,15.50
2023-04-08T02:55:33.936Z,16.30
2023-04-08T02:55:55.018Z,16.00
2023-04-08T02:56:16.057Z,14.70
2023-04-08T02:56:37.312Z,14.70
2023-04-08T02:56:58.395Z,14.60
2023-04-08T02:57:19.445Z,14.80
2023-04-08T02:57:40.544Z,15.10
2023-04-08T02:58:01.591Z,14.90
2023-04-08T02:58:22.642Z,15.10
2023-04-08T02:58:43.701Z,14.90
2023-04-08T02:59:04.753Z,14.50
2023-04-08T02:59:25.817Z,14.60
2023-04-08T02:59:46.872Z,14.50
2023-04-08T03:00:07.909Z,14.10
2023-04-08T03:00:29.057Z,13.10
2023-04-08T03:00:50.119Z,12.60
2023-04-08T03:01:11.179Z,13.00
2023-04-08T03:01:32.293Z,12.40
2023-04-08T03:01:53.419Z,12.60
2023-04-08T03:02:14.618Z,12.90
2023-04-08T03:02:35.841Z,13.30
2023-04-08T03:02:57.232Z,12.70
2023-04-08T03:03:18.596Z,12.90
2023-04-08T03:03:39.836Z,12.20
2023-04-08T03:04:01.034Z,12.30
2023-04-08T03:04:22.073Z,12.60
2023-04-08T03:04:43.173Z,12.50
2023-04-08T03:05:04.218Z,13.20
2023-04-08T03:05:25.251Z,12.70
2023-04-08T03:05:46.319Z,13.30
2023-04-08T03:06:07.396Z,13.50
2023-04-08T03:06:28.435Z,13.70
2023-04-08T03:06:49.540Z,13.90
2023-04-08T03:07:10.600Z,14.20
2023-04-08T03:07:31.716Z,14.20
2023-04-08T03:07:52.803Z,14.10
2023-04-08T03:08:13.865Z,14.10
2023-04-08T03:08:34.902Z,13.80
2023-04-08T03:08:55.966Z,13.90
2023-04-08T03:09:17.032Z,13.60
2023-04-08T03:09:38.101Z,13.50
2023-04-08T03:09:59.163Z,13.60
2023-04-08T03:10:20.242Z,14.30
2023-04-08T03:10:41.357Z,14.20
2023-04-08T03:11:02.428Z,13.90
2023-04-08T03:11:23.460Z,14.00
2023-04-08T03:11:44.513Z,13.90
2023-04-08T03:12:05.565Z,14.10
2023-04-08T03:12:26.667Z,14.00
2023-04-08T03:12:47.740Z,13.10
2023-04-08T03:13:08.798Z,12.70
2023-04-08T03:13:29.916Z,12.80
2023-04-08T03:13:50.966Z,11.80
2023-04-08T03:14:12.022Z,11.10
2023-04-08T03:14:33.074Z,10.20
2023-04-08T03:14:54.138Z,10.40
2023-04-08T03:15:15.195Z,10.50
2023-04-08T03:15:36.266Z,10.00
2023-04-08T03:15:57.354Z,9.90
2023-04-08T03:16:18.458Z,9.80
2023-04-08T03:16:39.515Z,10.00
2023-04-08T03:17:00.695Z,9.90
2023-04-08T03:17:21.824Z,9.60
2023-04-08T03:17:43.027Z,10.10
2023-04-08T03:18:04.156Z,10.10
2023-04-08T03:18:25.194Z,9.30
2023-04-08T03:18:46.246Z,9.10
2023-04-08T03:19:07.306Z,9.20
2023-04-08T03:19:28.367Z,9.40
2023-04-08T03:19:49.401Z,9.30
2023-04-08T03:20:10.569Z,9.60
2023-04-08T03:20:31.585Z,8.90
2023-04-08T03:20:52.648Z,9.30
2023-04-08T03:21:13.749Z,9.20
2023-04-08T03:21:34.775Z,9.10
2023-04-08T03:21:55.823Z,9.30
2023-04-08T03:22:16.919Z,9.50
2023-04-08T03:22:37.947Z,9.50
2023-04-08T03:22:59.033Z,9.80
2023-04-08T03:23:20.128Z,9.70
2023-04-08T03:23:41.216Z,9.40
2023-04-08T03:24:02.264Z,9.10
2023-04-08T03:24:23.295Z,9.10
2023-04-08T03:24:44.345Z,9.60
2023-04-08T03:25:05.409Z,9.80
2023-04-08T03:25:26.571Z,9.40
2023-04-08T03:25:47.607Z,10.00
2023-04-08T03:26:08.699Z,9.80
2023-04-08T03:26:29.757Z,9.60
2023-04-08T03:26:50.780Z,9.70
2023-04-08T03:27:11.835Z,9.10
2023-04-08T03:27:32.890Z,9.40
2023-04-08T03:27:53.937Z,9.70
2023-04-08T03:28:15.122Z,10.00
2023-04-08T03:28:36.356Z,10.00
2023-04-08T03:28:57.462Z,9.10
2023-04-08T03:29:18.633Z,9.00
2023-04-08T03:29:39.991Z,9.30
2023-04-08T03:30:01.174Z,9.20
2023-04-08T03:30:22.360Z,9.00
2023-04-08T03:30:43.768Z,9.10
2023-04-08T03:31:04.861Z,8.90
2023-04-08T03:31:25.915Z,8.50
2023-04-08T03:31:46.994Z,8.90
2023-04-08T03:32:08.261Z,8.90
2023-04-08T03:32:29.440Z,8.60
2023-04-08T03:32:50.657Z,8.50
2023-04-08T03:33:11.708Z,9.00
2023-04-08T03:33:32.797Z,9.00
2023-04-08T03:33:54.052Z,8.70
2023-04-08T03:34:15.108Z,8.30
2023-04-08T03:34:36.170Z,8.70
2023-04-08T03:34:57.234Z,8.90
2023-04-08T03:35:18.322Z,8.50
2023-04-08T03:35:39.436Z,8.70
2023-04-08T03:36:00.653Z,8.80
2023-04-08T03:36:21.705Z,9.50
2023-04-08T03:36:42.774Z,9.20
2023-04-08T03:37:03.824Z,9.00
2023-04-08T03:37:24.895Z,9.00
2023-04-08T03:37:45.925Z,9.30
2023-04-08T03:38:07.019Z,9.20
2023-04-08T03:38:28.087Z,9.10
2023-04-08T03:38:49.393Z,8.90
2023-04-08T03:39:10.697Z,8.40
2023-04-08T03:39:31.731Z,8.50
2023-04-08T03:39:52.838Z,8.80
2023-04-08T03:40:13.894Z,8.80
2023-04-08T03:40:34.933Z,8.50
2023-04-08T03:40:56.002Z,8.80
2023-04-08T03:41:17.077Z,9.00
2023-04-08T03:41:38.142Z,9.30
2023-04-08T03:41:59.169Z,9.70
2023-04-08T03:42:20.222Z,9.60
2023-04-08T03:42:41.294Z,10.20
2023-04-08T03:43:02.349Z,11.50
2023-04-08T03:43:23.434Z,11.50
2023-04-08T03:43:44.454Z,11.50
2023-04-08T03:44:05.550Z,11.80
2023-04-08T03:44:26.800Z,11.70
2023-04-08T03:44:47.838Z,11.60
2023-04-08T03:45:08.901Z,11.10
2023-04-08T03:45:29.962Z,11.40
2023-04-08T03:45:51.059Z,11.30
2023-04-08T03:46:12.158Z,11.00
2023-04-08T03:46:33.350Z,10.70
2023-04-08T03:46:54.382Z,10.70
2023-04-08T03:47:15.504Z,10.80
2023-04-08T03:47:36.567Z,10.60
2023-04-08T03:47:57.646Z,10.70
2023-04-08T03:48:18.698Z,10.40
2023-04-08T03:48:39.758Z,10.40
2023-04-08T03:49:00.809Z,10.20
2023-04-08T03:49:22.058Z,9.70
2023-04-08T03:49:43.166Z,9.40
2023-04-08T03:50:04.202Z,8.70
2023-04-08T03:50:25.261Z,8.10
2023-04-08T03:50:46.312Z,8.30
2023-04-08T03:51:07.385Z,8.10
2023-04-08T03:51:28.435Z,7.80
2023-04-08T03:51:49.500Z,7.80
2023-04-08T03:52:10.578Z,8.10
2023-04-08T03:52:31.609Z,8.00
2023-04-08T03:52:52.702Z,7.80
2023-04-08T03:53:13.726Z,7.70
2023-04-08T03:53:34.783Z,7.90
2023-04-08T03:53:55.851Z,7.80
2023-04-08T03:54:16.924Z,7.80
2023-04-08T03:54:38.185Z,7.70
2023-04-08T03:54:59.452Z,7.00
2023-04-08T03:55:20.481Z,7.00
2023-04-08T03:55:41.546Z,7.20
2023-04-08T03:56:02.631Z,7.10
2023-04-08T03:56:23.684Z,7.20
2023-04-08T03:56:44.721Z,7.30
2023-04-08T03:57:05.786Z,6.90
2023-04-08T03:57:26.830Z,6.80
2023-04-08T03:57:47.942Z,6.70
2023-04-08T03:58:08.973Z,6.40
2023-04-08T03:58:30.038Z,6.70
2023-04-08T03:58:51.266Z,6.60
2023-04-08T03:59:12.422Z,6.60
2023-04-08T03:59:33.475Z,7.00
2023-04-08T03:59:54.716Z,7.20
2023-04-08T04:00:16.009Z,6.80
2023-04-08T04:00:37.074Z,7.20
2023-04-08T04:00:58.119Z,7.00
2023-04-08T04:01:19.188Z,7.00
2023-04-08T04:01:41.981Z,6.80
2023-04-08T04:02:03.212Z,6.70
2023-04-08T04:02:24.494Z,6.70
2023-04-08T04:02:45.698Z,6.80
2023-04-08T04:03:06.920Z,6.60
2023-04-08T04:03:28.022Z,6.90
2023-04-08T04:03:49.246Z,7.10
2023-04-08T04:04:10.430Z,7.00
2023-04-08T04:04:31.628Z,6.60
2023-04-08T04:04:52.703Z,7.10
2023-04-08T04:05:13.819Z,6.60
2023-04-08T04:05:35.091Z,6.40
2023-04-08T04:05:56.145Z,6.40
2023-04-08T04:06:17.240Z,7.10
2023-04-08T04:06:38.260Z,7.60
2023-04-08T04:06:59.319Z,6.70
2023-04-08T04:07:20.417Z,6.50
2023-04-08T04:07:41.476Z,7.10
2023-04-08T04:08:02.517Z,6.60
2023-04-08T04:08:23.584Z,6.40
2023-04-08T04:08:44.686Z,6.70
2023-04-08T04:09:05.711Z,6.80
2023-04-08T04:09:26.777Z,7.20
2023-04-08T04:09:47.820Z,7.40
2023-04-08T04:10:08.876Z,7.00
2023-04-08T04:10:29.973Z,7.80
2023-04-08T04:10:51.047Z,7.30
2023-04-08T04:11:12.125Z,6.80
2023-04-08T04:11:33.194Z,6.80
2023-04-08T04:11:54.232Z,7.30
2023-04-08T04:12:15.309Z,7.70
2023-04-08T04:12:36.379Z,8.30
2023-04-08T04:12:57.435Z,8.20
2023-04-08T04:13:18.493Z,8.10
2023-04-08T04:13:39.552Z,8.20
2023-04-08T04:14:00.610Z,8.30
2023-04-08T04:14:21.670Z,8.20
2023-04-08T04:14:42.728Z,8.00
2023-04-08T04:15:03.799Z,7.90
2023-04-08T04:15:24.899Z,8.10
2023-04-08T04:15:46.031Z,7.50
2023-04-08T04:16:07.264Z,7.70
2023-04-08T04:16:29.135Z,7.40
2023-04-08T04:16:51.337Z,8.00
2023-04-08T04:17:12.417Z,8.50
2023-04-08T04:17:33.537Z,8.70
2023-04-08T04:17:54.578Z,8.40
2023-04-08T04:18:15.644Z,8.80
2023-04-08T04:18:36.724Z,9.10
2023-04-08T04:18:57.823Z,8.50
2023-04-08T04:19:18.879Z,8.70
2023-04-08T04:19:39.933Z,8.30
2023-04-08T04:20:01.000Z,8.50
2023-04-08T04:20:22.075Z,8.60
2023-04-08T04:20:43.150Z,8.70
2023-04-08T04:21:04.225Z,8.80
2023-04-08T04:21:25.502Z,8.90
2023-04-08T04:21:46.527Z,8.90
2023-04-08T04:22:07.617Z,9.00
2023-04-08T04:22:28.656Z,9.90
2023-04-08T04:22:49.718Z,10.90
2023-04-08T04:23:10.783Z,11.30
2023-04-08T04:23:31.868Z,11.90
2023-04-08T04:23:52.900Z,12.60
2023-04-08T04:24:13.983Z,12.70
2023-04-08T04:24:35.012Z,12.30
2023-04-08T04:24:56.079Z,11.70
2023-04-08T04:25:17.151Z,11.90
2023-04-08T04:25:38.195Z,12.00
2023-04-08T04:25:59.258Z,12.20
2023-04-08T04:26:20.344Z,12.80
2023-04-08T04:26:41.468Z,12.70
2023-04-08T04:27:02.520Z,13.20
2023-04-08T04:27:23.571Z,13.70
2023-04-08T04:27:44.620Z,13.30
2023-04-08T04:28:05.680Z,12.10
2023-04-08T04:28:26.752Z,11.70
2023-04-08T04:28:48.162Z,12.40
2023-04-08T04:29:09.486Z,11.20
2023-04-08T04:29:30.578Z,11.50
2023-04-08T04:29:51.597Z,11.20
2023-04-08T04:30:12.720Z,10.80
2023-04-08T04:30:33.765Z,11.50
2023-04-08T04:30:56.579Z,11.50
2023-04-08T04:31:17.912Z,12.10
2023-04-08T04:31:39.216Z,12.20
2023-04-08T04:32:00.366Z,12.40
2023-04-08T04:32:21.459Z,12.10
2023-04-08T04:32:42.515Z,12.90
2023-04-08T04:33:03.662Z,12.10
2023-04-08T04:33:24.709Z,12.40
2023-04-08T04:33:45.784Z,11.80
2023-04-08T04:34:06.848Z,11.60
2023-04-08T04:34:27.902Z,11.80